sensor_id;sensor_type;location;lat;lon;timestamp;P1;durP1;ratioP1;P2;durP2;ratioP2
16472;SDS011;8347;52.486;13.432;2023-09-18T00:00:04;10.73;;;9.63;;
16472;SDS011;8347;52.486;13.432;2023-09-18T00:02:54;9.95;;;8.95;;
16472;SDS011;8347;52.486;13.432;2023-09-18T00:05:41;10.88;;;8.95;;
16472;SDS011;8347;52.486;13.432;2023-09-18T00:08:27;10.52;;;9.43;;
16472;SDS011;8347;52.486;13.432;2023-09-18T00:11:14;10.05;;;9.05;;
16472;SDS011;8347;52.486;13.432;2023-09-18T00:14:00;10.55;;;9.45;;
16472;SDS011;8347;52.486;13.432;2023-09-18T00:16:46;11.02;;;9.10;;
16472;SDS011;8347;52.486;13.432;2023-09-18T00:19:33;9.18;;;8.25;;
16472;SDS011;8347;52.486;13.432;2023-09-18T00:22:19;10.10;;;9.20;;
16472;SDS011;8347;52.486;13.432;2023-09-18T00:25:06;10.30;;;9.30;;
16472;SDS011;8347;52.486;13.432;2023-09-18T00:27:53;10.43;;;9.43;;
16472;SDS011;8347;52.486;13.432;2023-09-18T00:30:46;10.00;;;8.80;;
16472;SDS011;8347;52.486;13.432;2023-09-18T00:33:33;11.85;;;8.88;;
16472;SDS011;8347;52.486;13.432;2023-09-18T00:36:20;11.13;;;8.60;;
16472;SDS011;8347;52.486;13.432;2023-09-18T00:39:06;10.13;;;9.07;;
16472;SDS011;8347;52.486;13.432;2023-09-18T00:41:52;11.05;;;8.77;;
16472;SDS011;8347;52.486;13.432;2023-09-18T00:44:40;10.93;;;9.15;;
16472;SDS011;8347;52.486;13.432;2023-09-18T00:47:27;10.02;;;9.13;;
16472;SDS011;8347;52.486;13.432;2023-09-18T00:50:14;10.80;;;9.35;;
16472;SDS011;8347;52.486;13.432;2023-09-18T00:53:01;10.00;;;9.00;;
16472;SDS011;8347;52.486;13.432;2023-09-18T00:55:47;10.02;;;8.18;;
16472;SDS011;8347;52.486;13.432;2023-09-18T00:58:37;11.18;;;9.77;;
16472;SDS011;8347;52.486;13.432;2023-09-18T01:01:24;11.07;;;9.27;;
16472;SDS011;8347;52.486;13.432;2023-09-18T01:04:10;9.52;;;8.52;;
16472;SDS011;8347;52.486;13.432;2023-09-18T01:07:01;10.15;;;9.15;;
16472;SDS011;8347;52.486;13.432;2023-09-18T01:09:51;11.98;;;9.02;;
16472;SDS011;8347;52.486;13.432;2023-09-18T01:12:45;8.82;;;7.93;;
16472;SDS011;8347;52.486;13.432;2023-09-18T01:15:35;9.43;;;8.32;;
16472;SDS011;8347;52.486;13.432;2023-09-18T01:18:23;10.93;;;8.73;;
16472;SDS011;8347;52.486;13.432;2023-09-18T01:21:09;9.50;;;8.52;;
16472;SDS011;8347;52.486;13.432;2023-09-18T01:23:56;10.02;;;8.75;;
16472;SDS011;8347;52.486;13.432;2023-09-18T01:26:42;9.73;;;8.60;;
16472;SDS011;8347;52.486;13.432;2023-09-18T01:29:29;9.93;;;8.82;;
16472;SDS011;8347;52.486;13.432;2023-09-18T01:32:16;10.20;;;9.20;;
16472;SDS011;8347;52.486;13.432;2023-09-18T01:35:03;10.70;;;8.95;;
16472;SDS011;8347;52.486;13.432;2023-09-18T01:37:54;11.02;;;8.75;;
16472;SDS011;8347;52.486;13.432;2023-09-18T01:40:41;8.65;;;7.75;;
16472;SDS011;8347;52.486;13.432;2023-09-18T01:43:27;8.73;;;7.82;;
16472;SDS011;8347;52.486;13.432;2023-09-18T01:46:14;11.70;;;8.20;;
16472;SDS011;8347;52.486;13.432;2023-09-18T01:49:00;9.63;;;8.60;;
16472;SDS011;8347;52.486;13.432;2023-09-18T01:51:48;9.98;;;8.88;;
16472;SDS011;8347;52.486;13.432;2023-09-18T01:54:36;9.23;;;7.95;;
16472;SDS011;8347;52.486;13.432;2023-09-18T01:57:22;9.02;;;8.13;;
16472;SDS011;8347;52.486;13.432;2023-09-18T02:00:09;10.35;;;9.35;;
16472;SDS011;8347;52.486;13.432;2023-09-18T02:02:58;10.02;;;8.15;;
16472;SDS011;8347;52.486;13.432;2023-09-18T02:05:45;10.70;;;8.45;;
16472;SDS011;8347;52.486;13.432;2023-09-18T02:08:31;9.88;;;8.88;;
16472;SDS011;8347;52.486;13.432;2023-09-18T02:11:18;10.32;;;9.00;;
16472;SDS011;8347;52.486;13.432;2023-09-18T02:14:05;12.88;;;9.40;;
16472;SDS011;8347;52.486;13.432;2023-09-18T02:16:51;9.18;;;8.27;;
16472;SDS011;8347;52.486;13.432;2023-09-18T02:19:39;10.48;;;9.38;;
16472;SDS011;8347;52.486;13.432;2023-09-18T02:22:26;10.90;;;9.23;;
16472;SDS011;8347;52.486;13.432;2023-09-18T02:25:12;10.10;;;9.10;;
16472;SDS011;8347;52.486;13.432;2023-09-18T02:27:59;11.60;;;9.35;;
16472;SDS011;8347;52.486;13.432;2023-09-18T02:30:45;9.95;;;8.93;;
16472;SDS011;8347;52.486;13.432;2023-09-18T02:33:32;9.90;;;8.93;;
16472;SDS011;8347;52.486;13.432;2023-09-18T02:36:19;9.68;;;8.77;;
16472;SDS011;8347;52.486;13.432;2023-09-18T02:39:08;11.45;;;8.73;;
16472;SDS011;8347;52.486;13.432;2023-09-18T02:41:54;10.85;;;9.75;;
16472;SDS011;8347;52.486;13.432;2023-09-18T02:44:42;10.52;;;9.48;;
16472;SDS011;8347;52.486;13.432;2023-09-18T02:47:28;9.73;;;8.80;;
16472;SDS011;8347;52.486;13.432;2023-09-18T02:50:15;12.75;;;9.32;;
16472;SDS011;8347;52.486;13.432;2023-09-18T02:53:02;12.38;;;10.23;;
16472;SDS011;8347;52.486;13.432;2023-09-18T02:55:51;9.45;;;8.43;;
16472;SDS011;8347;52.486;13.432;2023-09-18T02:58:38;11.10;;;9.88;;
16472;SDS011;8347;52.486;13.432;2023-09-18T03:01:25;10.43;;;9.27;;
16472;SDS011;8347;52.486;13.432;2023-09-18T03:04:12;10.27;;;9.27;;
16472;SDS011;8347;52.486;13.432;2023-09-18T03:06:59;9.45;;;8.27;;
16472;SDS011;8347;52.486;13.432;2023-09-18T03:09:45;10.93;;;8.88;;
16472;SDS011;8347;52.486;13.432;2023-09-18T03:12:32;10.13;;;9.02;;
16472;SDS011;8347;52.486;13.432;2023-09-18T03:15:19;10.15;;;9.15;;
16472;SDS011;8347;52.486;13.432;2023-09-18T03:18:05;11.00;;;8.57;;
16472;SDS011;8347;52.486;13.432;2023-09-18T03:20:55;10.02;;;8.95;;
16472;SDS011;8347;52.486;13.432;2023-09-18T03:23:41;9.20;;;8.13;;
16472;SDS011;8347;52.486;13.432;2023-09-18T03:26:28;9.98;;;8.88;;
16472;SDS011;8347;52.486;13.432;2023-09-18T03:29:15;10.27;;;8.73;;
16472;SDS011;8347;52.486;13.432;2023-09-18T03:32:01;12.00;;;10.07;;
16472;SDS011;8347;52.486;13.432;2023-09-18T03:34:50;9.88;;;8.88;;
16472;SDS011;8347;52.486;13.432;2023-09-18T03:37:37;11.75;;;8.38;;
16472;SDS011;8347;52.486;13.432;2023-09-18T03:40:23;10.25;;;9.02;;
16472;SDS011;8347;52.486;13.432;2023-09-18T03:43:10;10.70;;;8.45;;
16472;SDS011;8347;52.486;13.432;2023-09-18T03:46:04;14.07;;;8.65;;
16472;SDS011;8347;52.486;13.432;2023-09-18T03:48:53;10.60;;;9.00;;
16472;SDS011;8347;52.486;13.432;2023-09-18T03:51:40;9.98;;;9.07;;
16472;SDS011;8347;52.486;13.432;2023-09-18T03:54:27;10.18;;;8.40;;
16472;SDS011;8347;52.486;13.432;2023-09-18T03:57:13;9.68;;;8.77;;
16472;SDS011;8347;52.486;13.432;2023-09-18T04:00:00;10.20;;;9.20;;
16472;SDS011;8347;52.486;13.432;2023-09-18T04:02:47;9.73;;;8.23;;
16472;SDS011;8347;52.486;13.432;2023-09-18T04:05:34;12.98;;;8.40;;
16472;SDS011;8347;52.486;13.432;2023-09-18T04:08:20;9.85;;;8.85;;
16472;SDS011;8347;52.486;13.432;2023-09-18T04:11:06;10.43;;;8.15;;
16472;SDS011;8347;52.486;13.432;2023-09-18T04:13:55;12.80;;;8.70;;
16472;SDS011;8347;52.486;13.432;2023-09-18T04:16:41;10.38;;;8.20;;
16472;SDS011;8347;52.486;13.432;2023-09-18T04:19:28;11.13;;;9.25;;
16472;SDS011;8347;52.486;13.432;2023-09-18T04:22:16;10.90;;;8.80;;
16472;SDS011;8347;52.486;13.432;2023-09-18T04:25:03;8.98;;;8.07;;
16472;SDS011;8347;52.486;13.432;2023-09-18T04:27:51;11.60;;;8.50;;
16472;SDS011;8347;52.486;13.432;2023-09-18T04:30:38;9.05;;;8.18;;
16472;SDS011;8347;52.486;13.432;2023-09-18T04:33:25;14.20;;;9.05;;
16472;SDS011;8347;52.486;13.432;2023-09-18T04:36:14;10.48;;;9.48;;
16472;SDS011;8347;52.486;13.432;2023-09-18T04:39:01;9.13;;;8.18;;
16472;SDS011;8347;52.486;13.432;2023-09-18T04:41:48;11.75;;;9.15;;
16472;SDS011;8347;52.486;13.432;2023-09-18T04:44:35;12.07;;;8.85;;
16472;SDS011;8347;52.486;13.432;2023-09-18T04:47:23;11.98;;;9.95;;
16472;SDS011;8347;52.486;13.432;2023-09-18T04:50:09;11.80;;;9.30;;
16472;SDS011;8347;52.486;13.432;2023-09-18T04:52:56;11.75;;;8.48;;
16472;SDS011;8347;52.486;13.432;2023-09-18T04:55:43;11.25;;;8.38;;
16472;SDS011;8347;52.486;13.432;2023-09-18T04:58:35;11.20;;;9.27;;
16472;SDS011;8347;52.486;13.432;2023-09-18T05:01:23;14.32;;;8.80;;
16472;SDS011;8347;52.486;13.432;2023-09-18T05:04:10;12.27;;;9.32;;
16472;SDS011;8347;52.486;13.432;2023-09-18T05:06:57;10.15;;;8.25;;
16472;SDS011;8347;52.486;13.432;2023-09-18T05:09:44;8.85;;;8.05;;
16472;SDS011;8347;52.486;13.432;2023-09-18T05:12:31;11.68;;;9.18;;
16472;SDS011;8347;52.486;13.432;2023-09-18T05:15:18;11.85;;;8.10;;
16472;SDS011;8347;52.486;13.432;2023-09-18T05:18:04;10.43;;;8.30;;
16472;SDS011;8347;52.486;13.432;2023-09-18T05:20:51;10.40;;;8.73;;
16472;SDS011;8347;52.486;13.432;2023-09-18T05:23:37;12.85;;;9.38;;
16472;SDS011;8347;52.486;13.432;2023-09-18T05:26:24;13.98;;;9.10;;
16472;SDS011;8347;52.486;13.432;2023-09-18T05:29:12;9.55;;;8.32;;
16472;SDS011;8347;52.486;13.432;2023-09-18T05:31:58;12.48;;;9.20;;
16472;SDS011;8347;52.486;13.432;2023-09-18T05:34:45;9.82;;;8.25;;
16472;SDS011;8347;52.486;13.432;2023-09-18T05:37:32;10.45;;;8.23;;
16472;SDS011;8347;52.486;13.432;2023-09-18T05:40:18;11.70;;;8.82;;
16472;SDS011;8347;52.486;13.432;2023-09-18T05:43:05;11.25;;;8.35;;
16472;SDS011;8347;52.486;13.432;2023-09-18T05:45:53;14.25;;;8.50;;
16472;SDS011;8347;52.486;13.432;2023-09-18T05:48:40;9.23;;;8.30;;
16472;SDS011;8347;52.486;13.432;2023-09-18T05:51:28;12.20;;;7.95;;
16472;SDS011;8347;52.486;13.432;2023-09-18T05:54:15;10.90;;;7.65;;
16472;SDS011;8347;52.486;13.432;2023-09-18T05:57:02;12.63;;;7.85;;
16472;SDS011;8347;52.486;13.432;2023-09-18T05:59:49;9.20;;;7.60;;
16472;SDS011;8347;52.486;13.432;2023-09-18T06:02:35;7.78;;;6.97;;
16472;SDS011;8347;52.486;13.432;2023-09-18T06:05:23;12.25;;;7.47;;
16472;SDS011;8347;52.486;13.432;2023-09-18T06:08:10;11.23;;;6.95;;
16472;SDS011;8347;52.486;13.432;2023-09-18T06:10:57;9.27;;;7.85;;
16472;SDS011;8347;52.486;13.432;2023-09-18T06:13:43;8.60;;;7.70;;
16472;SDS011;8347;52.486;13.432;2023-09-18T06:16:30;11.25;;;7.43;;
16472;SDS011;8347;52.486;13.432;2023-09-18T06:19:17;9.18;;;7.45;;
16472;SDS011;8347;52.486;13.432;2023-09-18T06:22:03;10.40;;;8.05;;
16472;SDS011;8347;52.486;13.432;2023-09-18T06:24:49;8.40;;;7.60;;
16472;SDS011;8347;52.486;13.432;2023-09-18T06:27:36;9.05;;;7.07;;
16472;SDS011;8347;52.486;13.432;2023-09-18T06:30:23;10.98;;;6.57;;
16472;SDS011;8347;52.486;13.432;2023-09-18T06:33:09;9.73;;;7.00;;
16472;SDS011;8347;52.486;13.432;2023-09-18T06:35:57;10.55;;;6.82;;
16472;SDS011;8347;52.486;13.432;2023-09-18T06:38:44;9.73;;;7.00;;
16472;SDS011;8347;52.486;13.432;2023-09-18T06:41:31;11.00;;;6.85;;
16472;SDS011;8347;52.486;13.432;2023-09-18T06:44:18;7.10;;;6.40;;
16472;SDS011;8347;52.486;13.432;2023-09-18T06:47:04;7.28;;;6.50;;
16472;SDS011;8347;52.486;13.432;2023-09-18T06:49:51;10.32;;;6.20;;
16472;SDS011;8347;52.486;13.432;2023-09-18T06:52:37;8.45;;;6.30;;
16472;SDS011;8347;52.486;13.432;2023-09-18T06:55:24;9.45;;;6.68;;
16472;SDS011;8347;52.486;13.432;2023-09-18T06:58:10;9.32;;;6.63;;
16472;SDS011;8347;52.486;13.432;2023-09-18T07:00:57;7.65;;;5.93;;
16472;SDS011;8347;52.486;13.432;2023-09-18T07:03:44;7.38;;;6.68;;
16472;SDS011;8347;52.486;13.432;2023-09-18T07:06:32;8.25;;;5.82;;
16472;SDS011;8347;52.486;13.432;2023-09-18T07:09:19;11.75;;;6.22;;
16472;SDS011;8347;52.486;13.432;2023-09-18T07:12:08;12.15;;;6.55;;
16472;SDS011;8347;52.486;13.432;2023-09-18T07:14:55;8.40;;;5.82;;
16472;SDS011;8347;52.486;13.432;2023-09-18T07:17:42;11.60;;;6.30;;
16472;SDS011;8347;52.486;13.432;2023-09-18T07:20:28;10.07;;;6.40;;
16472;SDS011;8347;52.486;13.432;2023-09-18T07:23:15;6.82;;;5.78;;
16472;SDS011;8347;52.486;13.432;2023-09-18T07:26:02;9.77;;;6.30;;
16472;SDS011;8347;52.486;13.432;2023-09-18T07:28:49;7.18;;;5.47;;
16472;SDS011;8347;52.486;13.432;2023-09-18T07:31:35;7.32;;;6.07;;
16472;SDS011;8347;52.486;13.432;2023-09-18T07:34:23;9.32;;;6.57;;
16472;SDS011;8347;52.486;13.432;2023-09-18T07:37:09;8.50;;;6.10;;
16472;SDS011;8347;52.486;13.432;2023-09-18T07:39:56;6.88;;;5.97;;
16472;SDS011;8347;52.486;13.432;2023-09-18T07:42:43;6.43;;;5.18;;
16472;SDS011;8347;52.486;13.432;2023-09-18T07:45:29;7.40;;;5.70;;
16472;SDS011;8347;52.486;13.432;2023-09-18T07:48:16;5.55;;;5.05;;
16472;SDS011;8347;52.486;13.432;2023-09-18T07:51:05;6.30;;;5.53;;
16472;SDS011;8347;52.486;13.432;2023-09-18T07:53:51;6.88;;;5.60;;
16472;SDS011;8347;52.486;13.432;2023-09-18T07:56:38;5.10;;;4.57;;
16472;SDS011;8347;52.486;13.432;2023-09-18T07:59:25;7.10;;;5.25;;
16472;SDS011;8347;52.486;13.432;2023-09-18T08:02:11;6.40;;;5.80;;
16472;SDS011;8347;52.486;13.432;2023-09-18T08:04:57;6.90;;;5.78;;
16472;SDS011;8347;52.486;13.432;2023-09-18T08:07:44;6.05;;;5.45;;
16472;SDS011;8347;52.486;13.432;2023-09-18T08:10:36;6.07;;;5.47;;
16472;SDS011;8347;52.486;13.432;2023-09-18T08:13:23;12.32;;;5.88;;
16472;SDS011;8347;52.486;13.432;2023-09-18T08:16:10;7.38;;;5.43;;
16472;SDS011;8347;52.486;13.432;2023-09-18T08:18:56;5.75;;;4.97;;
16472;SDS011;8347;52.486;13.432;2023-09-18T08:21:42;5.82;;;5.22;;
16472;SDS011;8347;52.486;13.432;2023-09-18T08:24:29;6.15;;;5.65;;
16472;SDS011;8347;52.486;13.432;2023-09-18T08:27:16;6.70;;;4.65;;
16472;SDS011;8347;52.486;13.432;2023-09-18T08:30:03;5.47;;;4.97;;
16472;SDS011;8347;52.486;13.432;2023-09-18T08:32:49;6.55;;;5.95;;
16472;SDS011;8347;52.486;13.432;2023-09-18T08:35:36;5.95;;;5.45;;
16472;SDS011;8347;52.486;13.432;2023-09-18T08:38:22;6.90;;;5.03;;
16472;SDS011;8347;52.486;13.432;2023-09-18T08:41:09;7.13;;;5.13;;
16472;SDS011;8347;52.486;13.432;2023-09-18T08:43:56;7.28;;;5.43;;
16472;SDS011;8347;52.486;13.432;2023-09-18T08:46:45;6.55;;;5.90;;
16472;SDS011;8347;52.486;13.432;2023-09-18T08:49:32;10.18;;;5.40;;
16472;SDS011;8347;52.486;13.432;2023-09-18T08:52:20;8.18;;;5.13;;
16472;SDS011;8347;52.486;13.432;2023-09-18T08:55:07;11.40;;;5.75;;
16472;SDS011;8347;52.486;13.432;2023-09-18T08:57:54;6.15;;;5.55;;
16472;SDS011;8347;52.486;13.432;2023-09-18T09:00:43;8.98;;;5.20;;
16472;SDS011;8347;52.486;13.432;2023-09-18T09:03:30;5.72;;;4.82;;
16472;SDS011;8347;52.486;13.432;2023-09-18T09:06:16;6.43;;;5.15;;
16472;SDS011;8347;52.486;13.432;2023-09-18T09:09:03;5.57;;;4.93;;
16472;SDS011;8347;52.486;13.432;2023-09-18T09:11:50;7.15;;;5.53;;
16472;SDS011;8347;52.486;13.432;2023-09-18T09:14:37;7.47;;;4.97;;
16472;SDS011;8347;52.486;13.432;2023-09-18T09:17:24;5.97;;;4.47;;
16472;SDS011;8347;52.486;13.432;2023-09-18T09:20:11;5.25;;;4.50;;
16472;SDS011;8347;52.486;13.432;2023-09-18T09:23:02;6.00;;;4.70;;
16472;SDS011;8347;52.486;13.432;2023-09-18T09:25:48;5.30;;;4.78;;
16472;SDS011;8347;52.486;13.432;2023-09-18T09:28:35;7.88;;;4.97;;
16472;SDS011;8347;52.486;13.432;2023-09-18T09:31:26;7.35;;;4.78;;
16472;SDS011;8347;52.486;13.432;2023-09-18T09:34:24;5.93;;;4.85;;
16472;SDS011;8347;52.486;13.432;2023-09-18T09:37:12;7.47;;;4.47;;
16472;SDS011;8347;52.486;13.432;2023-09-18T09:40:02;8.15;;;4.22;;
16472;SDS011;8347;52.486;13.432;2023-09-18T09:42:56;4.65;;;4.22;;
16472;SDS011;8347;52.486;13.432;2023-09-18T09:45:46;8.30;;;5.10;;
16472;SDS011;8347;52.486;13.432;2023-09-18T09:48:32;4.60;;;3.95;;
16472;SDS011;8347;52.486;13.432;2023-09-18T09:51:19;6.03;;;4.13;;
16472;SDS011;8347;52.486;13.432;2023-09-18T09:54:07;5.65;;;4.97;;
16472;SDS011;8347;52.486;13.432;2023-09-18T09:56:54;5.05;;;4.13;;
16472;SDS011;8347;52.486;13.432;2023-09-18T09:59:40;5.35;;;4.63;;
16472;SDS011;8347;52.486;13.432;2023-09-18T10:02:30;6.03;;;4.95;;
16472;SDS011;8347;52.486;13.432;2023-09-18T10:05:20;5.50;;;4.53;;
16472;SDS011;8347;52.486;13.432;2023-09-18T10:08:08;6.45;;;4.60;;
16472;SDS011;8347;52.486;13.432;2023-09-18T10:11:00;4.85;;;4.05;;
16472;SDS011;8347;52.486;13.432;2023-09-18T10:13:57;4.38;;;3.92;;
16472;SDS011;8347;52.486;13.432;2023-09-18T10:16:49;7.20;;;4.35;;
16472;SDS011;8347;52.486;13.432;2023-09-18T10:19:41;4.60;;;4.15;;
16472;SDS011;8347;52.486;13.432;2023-09-18T10:22:37;6.22;;;4.68;;
16472;SDS011;8347;52.486;13.432;2023-09-18T10:25:24;5.05;;;4.40;;
16472;SDS011;8347;52.486;13.432;2023-09-18T10:28:12;5.57;;;4.72;;
16472;SDS011;8347;52.486;13.432;2023-09-18T10:31:00;6.72;;;4.60;;
16472;SDS011;8347;52.486;13.432;2023-09-18T10:33:49;6.63;;;4.40;;
16472;SDS011;8347;52.486;13.432;2023-09-18T10:36:36;5.55;;;4.65;;
16472;SDS011;8347;52.486;13.432;2023-09-18T10:39:23;6.53;;;4.80;;
16472;SDS011;8347;52.486;13.432;2023-09-18T10:42:11;5.05;;;4.65;;
16472;SDS011;8347;52.486;13.432;2023-09-18T10:44:58;5.88;;;4.82;;
16472;SDS011;8347;52.486;13.432;2023-09-18T10:47:46;6.50;;;4.65;;
16472;SDS011;8347;52.486;13.432;2023-09-18T10:50:34;7.20;;;5.28;;
16472;SDS011;8347;52.486;13.432;2023-09-18T10:53:21;4.97;;;4.50;;
16472;SDS011;8347;52.486;13.432;2023-09-18T10:56:14;6.80;;;4.60;;
16472;SDS011;8347;52.486;13.432;2023-09-18T10:59:02;5.97;;;5.30;;
16472;SDS011;8347;52.486;13.432;2023-09-18T11:01:49;7.50;;;4.75;;
16472;SDS011;8347;52.486;13.432;2023-09-18T11:04:35;6.13;;;4.85;;
16472;SDS011;8347;52.486;13.432;2023-09-18T11:07:22;8.70;;;5.05;;
16472;SDS011;8347;52.486;13.432;2023-09-18T11:10:26;5.63;;;5.03;;
16472;SDS011;8347;52.486;13.432;2023-09-18T11:13:12;7.28;;;5.63;;
16472;SDS011;8347;52.486;13.432;2023-09-18T11:19:12;9.23;;;5.70;;
16472;SDS011;8347;52.486;13.432;2023-09-18T11:22:06;9.02;;;5.25;;
16472;SDS011;8347;52.486;13.432;2023-09-18T11:25:28;7.25;;;6.15;;
16472;SDS011;8347;52.486;13.432;2023-09-18T11:28:24;5.80;;;5.05;;
16472;SDS011;8347;52.486;13.432;2023-09-18T11:31:10;8.57;;;4.97;;
16472;SDS011;8347;52.486;13.432;2023-09-18T11:33:57;7.15;;;5.55;;
16472;SDS011;8347;52.486;13.432;2023-09-18T11:36:44;9.00;;;6.63;;
16472;SDS011;8347;52.486;13.432;2023-09-18T11:39:34;7.20;;;6.47;;
16472;SDS011;8347;52.486;13.432;2023-09-18T11:42:22;10.25;;;6.32;;
16472;SDS011;8347;52.486;13.432;2023-09-18T11:45:08;7.20;;;5.40;;
16472;SDS011;8347;52.486;13.432;2023-09-18T11:48:03;7.40;;;5.53;;
16472;SDS011;8347;52.486;13.432;2023-09-18T11:50:51;7.55;;;6.85;;
16472;SDS011;8347;52.486;13.432;2023-09-18T11:53:39;7.90;;;6.90;;
16472;SDS011;8347;52.486;13.432;2023-09-18T11:56:27;6.88;;;6.13;;
16472;SDS011;8347;52.486;13.432;2023-09-18T11:59:14;6.72;;;6.00;;
16472;SDS011;8347;52.486;13.432;2023-09-18T12:02:01;7.60;;;5.63;;
16472;SDS011;8347;52.486;13.432;2023-09-18T12:04:51;6.20;;;4.97;;
16472;SDS011;8347;52.486;13.432;2023-09-18T12:07:39;5.25;;;4.75;;
16472;SDS011;8347;52.486;13.432;2023-09-18T12:10:30;7.07;;;5.10;;
16472;SDS011;8347;52.486;13.432;2023-09-18T12:13:17;5.88;;;5.00;;
16472;SDS011;8347;52.486;13.432;2023-09-18T12:16:04;5.55;;;4.93;;
16472;SDS011;8347;52.486;13.432;2023-09-18T12:18:51;7.45;;;5.45;;
16472;SDS011;8347;52.486;13.432;2023-09-18T12:21:40;5.82;;;5.20;;
16472;SDS011;8347;52.486;13.432;2023-09-18T12:24:27;6.13;;;5.03;;
16472;SDS011;8347;52.486;13.432;2023-09-18T12:27:14;6.47;;;5.25;;
16472;SDS011;8347;52.486;13.432;2023-09-18T12:30:00;6.00;;;5.38;;
16472;SDS011;8347;52.486;13.432;2023-09-18T12:32:47;6.13;;;5.53;;
16472;SDS011;8347;52.486;13.432;2023-09-18T12:35:34;6.65;;;5.25;;
16472;SDS011;8347;52.486;13.432;2023-09-18T12:38:21;8.20;;;6.38;;
16472;SDS011;8347;52.486;13.432;2023-09-18T12:41:12;6.28;;;5.10;;
16472;SDS011;8347;52.486;13.432;2023-09-18T12:43:59;12.00;;;5.88;;
16472;SDS011;8347;52.486;13.432;2023-09-18T12:46:46;9.25;;;6.18;;
16472;SDS011;8347;52.486;13.432;2023-09-18T12:49:36;6.93;;;6.03;;
16472;SDS011;8347;52.486;13.432;2023-09-18T12:52:25;6.75;;;5.88;;
16472;SDS011;8347;52.486;13.432;2023-09-18T12:55:23;9.07;;;6.70;;
16472;SDS011;8347;52.486;13.432;2023-09-18T12:58:11;8.50;;;6.13;;
16472;SDS011;8347;52.486;13.432;2023-09-18T13:01:03;9.45;;;6.18;;
16472;SDS011;8347;52.486;13.432;2023-09-18T13:03:53;13.20;;;8.38;;
16472;SDS011;8347;52.486;13.432;2023-09-18T13:06:41;14.43;;;9.30;;
16472;SDS011;8347;52.486;13.432;2023-09-18T13:09:27;10.52;;;6.20;;
16472;SDS011;8347;52.486;13.432;2023-09-18T13:12:14;7.90;;;5.38;;
16472;SDS011;8347;52.486;13.432;2023-09-18T13:15:01;7.20;;;5.80;;
16472;SDS011;8347;52.486;13.432;2023-09-18T13:17:50;7.32;;;5.82;;
16472;SDS011;8347;52.486;13.432;2023-09-18T13:20:37;6.80;;;5.30;;
16472;SDS011;8347;52.486;13.432;2023-09-18T13:23:32;6.00;;;5.40;;
16472;SDS011;8347;52.486;13.432;2023-09-18T13:26:18;15.45;;;8.35;;
16472;SDS011;8347;52.486;13.432;2023-09-18T13:29:04;11.55;;;8.20;;
16472;SDS011;8347;52.486;13.432;2023-09-18T13:31:51;11.55;;;7.70;;
16472;SDS011;8347;52.486;13.432;2023-09-18T13:34:38;9.43;;;6.78;;
16472;SDS011;8347;52.486;13.432;2023-09-18T13:37:24;11.70;;;6.45;;
16472;SDS011;8347;52.486;13.432;2023-09-18T13:40:12;9.07;;;6.75;;
16472;SDS011;8347;52.486;13.432;2023-09-18T13:42:59;10.00;;;6.32;;
16472;SDS011;8347;52.486;13.432;2023-09-18T13:45:45;10.98;;;5.85;;
16472;SDS011;8347;52.486;13.432;2023-09-18T13:48:32;9.10;;;5.90;;
16472;SDS011;8347;52.486;13.432;2023-09-18T13:51:19;13.63;;;7.80;;
16472;SDS011;8347;52.486;13.432;2023-09-18T13:54:05;9.15;;;7.15;;
16472;SDS011;8347;52.486;13.432;2023-09-18T13:56:53;11.20;;;8.82;;
16472;SDS011;8347;52.486;13.432;2023-09-18T13:59:41;10.30;;;7.00;;
16472;SDS011;8347;52.486;13.432;2023-09-18T14:02:28;11.10;;;7.20;;
16472;SDS011;8347;52.486;13.432;2023-09-18T14:05:15;8.77;;;6.32;;
16472;SDS011;8347;52.486;13.432;2023-09-18T14:08:02;7.60;;;6.20;;
16472;SDS011;8347;52.486;13.432;2023-09-18T14:10:49;8.55;;;6.18;;
16472;SDS011;8347;52.486;13.432;2023-09-18T14:13:36;11.57;;;6.25;;
16472;SDS011;8347;52.486;13.432;2023-09-18T14:16:22;8.77;;;6.35;;
16472;SDS011;8347;52.486;13.432;2023-09-18T14:19:10;11.80;;;5.95;;
16472;SDS011;8347;52.486;13.432;2023-09-18T14:21:57;6.78;;;5.43;;
16472;SDS011;8347;52.486;13.432;2023-09-18T14:24:49;7.80;;;6.72;;
16472;SDS011;8347;52.486;13.432;2023-09-18T14:27:35;12.23;;;6.95;;
16472;SDS011;8347;52.486;13.432;2023-09-18T14:30:22;15.98;;;6.40;;
16472;SDS011;8347;52.486;13.432;2023-09-18T14:33:15;11.68;;;6.15;;
16472;SDS011;8347;52.486;13.432;2023-09-18T14:36:02;9.35;;;6.43;;
16472;SDS011;8347;52.486;13.432;2023-09-18T14:38:49;13.05;;;7.72;;
16472;SDS011;8347;52.486;13.432;2023-09-18T14:41:36;10.55;;;6.53;;
16472;SDS011;8347;52.486;13.432;2023-09-18T14:44:23;11.00;;;4.95;;
16472;SDS011;8347;52.486;13.432;2023-09-18T14:47:13;7.63;;;4.20;;
16472;SDS011;8347;52.486;13.432;2023-09-18T14:50:01;10.90;;;4.85;;
16472;SDS011;8347;52.486;13.432;2023-09-18T14:52:50;9.55;;;5.10;;
16472;SDS011;8347;52.486;13.432;2023-09-18T14:55:36;7.88;;;5.68;;
16472;SDS011;8347;52.486;13.432;2023-09-18T14:58:23;7.53;;;4.28;;
16472;SDS011;8347;52.486;13.432;2023-09-18T15:01:11;7.40;;;3.30;;
16472;SDS011;8347;52.486;13.432;2023-09-18T15:03:57;4.75;;;3.78;;
16472;SDS011;8347;52.486;13.432;2023-09-18T15:06:44;8.32;;;3.72;;
16472;SDS011;8347;52.486;13.432;2023-09-18T15:09:30;10.35;;;3.80;;
16472;SDS011;8347;52.486;13.432;2023-09-18T15:12:16;7.00;;;4.15;;
16472;SDS011;8347;52.486;13.432;2023-09-18T15:15:03;7.28;;;3.75;;
16472;SDS011;8347;52.486;13.432;2023-09-18T15:17:50;7.28;;;3.63;;
16472;SDS011;8347;52.486;13.432;2023-09-18T15:20:40;11.18;;;5.25;;
16472;SDS011;8347;52.486;13.432;2023-09-18T15:23:27;7.15;;;3.47;;
16472;SDS011;8347;52.486;13.432;2023-09-18T15:26:15;9.27;;;4.18;;
16472;SDS011;8347;52.486;13.432;2023-09-18T15:29:02;9.70;;;5.25;;
16472;SDS011;8347;52.486;13.432;2023-09-18T15:31:49;11.02;;;5.20;;
16472;SDS011;8347;52.486;13.432;2023-09-18T15:34:35;10.40;;;4.82;;
16472;SDS011;8347;52.486;13.432;2023-09-18T15:37:22;9.30;;;4.32;;
16472;SDS011;8347;52.486;13.432;2023-09-18T15:40:09;5.75;;;3.60;;
16472;SDS011;8347;52.486;13.432;2023-09-18T15:42:58;7.57;;;4.43;;
16472;SDS011;8347;52.486;13.432;2023-09-18T15:45:45;8.05;;;3.80;;
16472;SDS011;8347;52.486;13.432;2023-09-18T15:48:32;8.38;;;4.38;;
16472;SDS011;8347;52.486;13.432;2023-09-18T15:51:19;6.35;;;3.35;;
16472;SDS011;8347;52.486;13.432;2023-09-18T15:54:05;10.75;;;5.22;;
16472;SDS011;8347;52.486;13.432;2023-09-18T15:56:52;7.30;;;4.80;;
16472;SDS011;8347;52.486;13.432;2023-09-18T15:59:39;10.40;;;4.22;;
16472;SDS011;8347;52.486;13.432;2023-09-18T16:02:26;13.45;;;5.13;;
16472;SDS011;8347;52.486;13.432;2023-09-18T16:05:12;8.82;;;4.47;;
16472;SDS011;8347;52.486;13.432;2023-09-18T16:08:00;8.73;;;4.38;;
16472;SDS011;8347;52.486;13.432;2023-09-18T16:10:48;10.02;;;4.85;;
16472;SDS011;8347;52.486;13.432;2023-09-18T16:13:34;12.07;;;4.38;;
16472;SDS011;8347;52.486;13.432;2023-09-18T16:16:21;7.68;;;3.83;;
16472;SDS011;8347;52.486;13.432;2023-09-18T16:19:07;10.40;;;4.35;;
16472;SDS011;8347;52.486;13.432;2023-09-18T16:21:54;9.52;;;4.43;;
16472;SDS011;8347;52.486;13.432;2023-09-18T16:24:40;8.10;;;4.63;;
16472;SDS011;8347;52.486;13.432;2023-09-18T16:27:26;6.90;;;5.40;;
16472;SDS011;8347;52.486;13.432;2023-09-18T16:30:13;10.60;;;4.95;;
16472;SDS011;8347;52.486;13.432;2023-09-18T16:32:59;8.75;;;5.10;;
16472;SDS011;8347;52.486;13.432;2023-09-18T16:35:46;10.60;;;5.20;;
16472;SDS011;8347;52.486;13.432;2023-09-18T16:38:32;10.95;;;6.70;;
16472;SDS011;8347;52.486;13.432;2023-09-18T16:41:26;16.05;;;6.55;;
16472;SDS011;8347;52.486;13.432;2023-09-18T16:44:13;12.55;;;4.60;;
16472;SDS011;8347;52.486;13.432;2023-09-18T16:47:00;7.72;;;4.72;;